Swift Current Airport
CYYN : rendu visible

Aérodrome :











RETROUVEZ-NOUS SUR...

 
LOGIN :

S'inscrire | Disclaimer

   EN    FR    IT 

 









Légende :    VFR   VFR Marginal   IFR   IFR Intensif   IFR Très Intensif
Visi : 
Plafond : 
>= 8 km
>= 3000ft
5 à 8 km
1000 à 3000 ft
1500m à 5 km
500 à 1000 ft
800 à 1500m
200 à 500 ft
< 800m
< 200 ft
Symboles :   Orages  Brouillard  Fortes neiges  Fortes précipitations  Vent > 20 kt






- Altitude de l'aérodrome : 2680 ft
- Code IATA : YYN


CYYN - Swift Current

DERNIER METAR :
  • 150700Z AUTO 18009KT 9SM CLR M02/M03 A2992 RMK ICG INTMT SLP164

METARs EXPIRÉS :
  • 150600Z AUTO 16009KT 9SM CLR M03/M04 A2994 RMK ICG SLP173
  • 150500Z AUTO 14005KT 9SM CLR M04/M04 A2997 RMK ICG SLP182

TAF TAF CYYN
Valide du 15 à 06h jusqu'au 15 à 18h UTC


150553Z 1506/1518 14005KT P6SM SKC
BECMG 1506/1508 1/2SM FZFG VV002
FM150800 16007KT 1/2SM FZFG VV002
TEMPO 1508/1515 2SM BR SCT002
BECMG 1513/1515 18015KT
FM151500 18015KT P6SM FEW010 BKN120 RMK FCST BASED ON AUTO OBS. NXT FCST BY 151200Z



MET'MAP, la Météo Aéronautique d'un coup d'oeil ! - Copyright ORBIFLY Décembre 2007 - Disclaimer

ORBIFLY MET'MAP TEAM :

Programmation & Développement : Alexandra Zaïnal
Conception & Développement : Baudouin d'Aumeries
Co-Programmation & Développement : Marc-Olivier Méhu
Soutien technique & logistique : Manuel Goepfert

Contact : metmap@orbifly.com




SOURCES & CREDITS :

   NOAA       Earth
Advisory